首页
METAR-TAF:

METAR-TAF

机场 :

埃尔多拉多国际机场

波哥大, 哥伦比亚

纬度: 04-43N, 经度: 074-09W, 海拔: 2547米

当前天气观测

该预报发布于46分钟前的08:00 UTC
风速2节,风向多变
温度 10°C
湿度 93%
气压 1026 hPa
能见度10公里或以上
少量云层高于1700英尺
散云层高于20000英尺

METAR: SKBO 140800Z VRB02KT 9999 FEW017 SCT200 10/09 A3030 REDZ

时间: 03:46 (08:46 UTC)

预报

该预报发布于3小时和46分钟前的05:00 UTC
预报有效从14日的 06点(UTC)到 15日的 06点(UTC)
风速3节,风向多变
能见度10公里或以上
散云层高于1500英尺
多云层高于7000英尺
短暂存在
从 14日的 06点(UTC)到 14日的 11点(UTC)
能見度: 5000
毛毛雨, 雨
成为
从 14日的 15点(UTC)到 14日的 17点(UTC)
风速12节,风向东南
散云层高于1700英尺
散云层高于8000英尺
短暂存在
从 14日的 18点(UTC)到 14日的 22点(UTC)
能見度: 7000
毛毛雨, 雨

TAF: SKBO 140500Z 1406/1506 VRB03KT 9999 SCT015 BKN070 TEMPO 1406/1411 5000 DZRA BECMG 1415/1417 14012KT SCT017 SCT080 TEMPO 1418/1422 7000 DZRA TX19/1418Z TN09/1411Z

超过4000个机场的气象观测和天气预报(METAR&TAF报告)。

可查询的气象台以黄色和红色小点在地图上表示。

将鼠标移到小点上方,可查看气象台名称。

然后点击查看天气观测和预报。

如需切换地图:点击带黑十字的绿色按钮放大地图;点击带横线的绿色按钮缩小地图;或者点击绿色箭头查看邻近地区的地图。


METAR-TAF: